Time;durP1;ratioP1;P1;durP2;ratioP2;P2;SDS_P1;SDS_P2;PMS_P1;PMS_P2;Temp;Humidity;BMP_temperature;BMP_pressure;BME280_temperature;BME280_humidity;BME280_pressure;Samples;Min_cycle;Max_cycle;Signal;HPM_P1;HPM_P2
2024/01/02 00:01:26;;;;;;;7.38;3.20;;;;;;;;;;4977864;28;20053;-68
2024/01/02 00:03:51;;;;;;;5.22;2.97;;;;;;;;;;4978076;28;20947;-66
2024/01/02 00:06:17;;;;;;;7.03;3.00;;;;;;;;;;4978274;28;20042;-66
2024/01/02 00:08:43;;;;;;;10.75;4.15;;;;;;;;;;4977405;28;20046;-66
2024/01/02 00:11:12;;;;;;;6.18;3.58;;;;;;;;;;4979191;28;20057;-64
2024/01/02 00:13:37;;;;;;;4.05;2.70;;;;;;;;;;4977808;28;20050;-66
2024/01/02 00:16:03;;;;;;;7.05;3.58;;;;;;;;;;4978154;28;20062;-67
2024/01/02 00:18:28;;;;;;;5.70;3.83;;;;;;;;;;4978686;28;20054;-67
2024/01/02 00:20:53;;;;;;;7.25;3.58;;;;;;;;;;4978928;28;20070;-66
2024/01/02 00:23:19;;;;;;;5.13;2.75;;;;;;;;;;4977634;28;20511;-65
2024/01/02 00:25:44;;;;;;;4.78;2.92;;;;;;;;;;4976429;28;20042;-68
2024/01/02 00:28:11;;;;;;;6.13;3.10;;;;;;;;;;4978130;28;20078;-66
2024/01/02 00:30:37;;;;;;;5.03;2.75;;;;;;;;;;4975394;28;20981;-65
2024/01/02 00:33:03;;;;;;;7.82;3.17;;;;;;;;;;4977854;28;20038;-67
2024/01/02 00:35:29;;;;;;;5.88;2.90;;;;;;;;;;4976345;28;20657;-67
2024/01/02 00:37:57;;;;;;;3.00;2.70;;;;;;;;;;4976855;28;20070;-66
2024/01/02 00:40:22;;;;;;;4.13;2.95;;;;;;;;;;4976962;28;20124;-69
2024/01/02 00:42:48;;;;;;;5.57;3.17;;;;;;;;;;4961573;28;20046;-65
2024/01/02 00:45:14;;;;;;;3.92;2.92;;;;;;;;;;4976806;28;20046;-69
2024/01/02 00:47:40;;;;;;;5.15;2.80;;;;;;;;;;4976316;28;20043;-64
2024/01/02 00:50:06;;;;;;;5.15;1.92;;;;;;;;;;4976688;28;20534;-67
2024/01/02 00:52:33;;;;;;;4.35;2.63;;;;;;;;;;4977133;28;20054;-65
2024/01/02 00:54:58;;;;;;;3.67;2.50;;;;;;;;;;4974897;28;20117;-69
2024/01/02 00:57:25;;;;;;;4.53;3.03;;;;;;;;;;4976335;28;20050;-65
2024/01/02 00:59:51;;;;;;;6.22;2.95;;;;;;;;;;4976303;28;20038;-68
2024/01/02 01:02:16;;;;;;;2.65;1.77;;;;;;;;;;4976040;28;20131;-67
2024/01/02 01:04:43;;;;;;;3.55;2.63;;;;;;;;;;4976220;28;20574;-66
2024/01/02 01:07:09;;;;;;;7.53;2.80;;;;;;;;;;4975952;28;20145;-69
2024/01/02 01:09:34;;;;;;;4.30;2.90;;;;;;;;;;4976345;28;20104;-67
2024/01/02 01:12:00;;;;;;;7.40;3.38;;;;;;;;;;4977653;28;20057;-64
2024/01/02 01:14:25;;;;;;;3.70;2.55;;;;;;;;;;4976510;28;20137;-64
2024/01/02 01:16:50;;;;;;;4.78;3.10;;;;;;;;;;4974288;28;20065;-66
2024/01/02 01:19:16;;;;;;;7.60;3.28;;;;;;;;;;4976007;28;20055;-65
2024/01/02 01:21:41;;;;;;;5.05;2.92;;;;;;;;;;4974857;28;20050;-67
2024/01/02 01:24:06;;;;;;;6.47;3.30;;;;;;;;;;4976363;28;20136;-60
2024/01/02 01:26:33;;;;;;;6.45;3.30;;;;;;;;;;4976279;28;20042;-59
2024/01/02 01:28:58;;;;;;;4.22;3.05;;;;;;;;;;4976257;28;20046;-62
2024/01/02 01:31:24;;;;;;;5.53;3.38;;;;;;;;;;4977562;28;20745;-60
2024/01/02 01:33:50;;;;;;;5.20;3.00;;;;;;;;;;4972835;28;20133;-65
2024/01/02 01:36:15;;;;;;;3.50;2.40;;;;;;;;;;4974062;28;20653;-65
2024/01/02 01:38:40;;;;;;;6.35;3.50;;;;;;;;;;4974864;28;20078;-65
2024/01/02 01:41:06;;;;;;;4.95;2.78;;;;;;;;;;4974387;28;20050;-67
2024/01/02 01:43:31;;;;;;;6.00;3.63;;;;;;;;;;4974969;28;20277;-68
2024/01/02 01:45:58;;;;;;;4.55;3.20;;;;;;;;;;4975904;28;20113;-65
2024/01/02 01:48:23;;;;;;;2.10;1.95;;;;;;;;;;4976716;28;20137;-66
2024/01/02 01:50:49;;;;;;;5.70;3.30;;;;;;;;;;4974369;28;20438;-64
2024/01/02 01:53:15;;;;;;;5.05;3.47;;;;;;;;;;4976571;28;20101;-64
2024/01/02 01:55:41;;;;;;;3.92;2.75;;;;;;;;;;4975241;28;20046;-63
2024/01/02 01:58:07;;;;;;;4.57;2.88;;;;;;;;;;4990295;28;20053;-65
2024/01/02 02:00:33;;;;;;;9.48;3.10;;;;;;;;;;4975095;28;20575;-65
2024/01/02 02:02:59;;;;;;;5.18;3.03;;;;;;;;;;4974957;28;20042;-64
2024/01/02 02:05:28;;;;;;;4.22;2.85;;;;;;;;;;4974999;28;20463;-67
2024/01/02 02:07:57;;;;;;;4.18;2.47;;;;;;;;;;4978654;28;20038;-65
2024/01/02 02:10:23;;;;;;;7.18;3.88;;;;;;;;;;4978374;28;20511;-63
2024/01/02 02:12:48;;;;;;;5.50;3.38;;;;;;;;;;4977409;28;20042;-65
2024/01/02 02:15:14;;;;;;;4.30;3.35;;;;;;;;;;4979936;28;20474;-65
2024/01/02 02:17:39;;;;;;;5.50;3.80;;;;;;;;;;4979351;28;20046;-66
2024/01/02 02:20:05;;;;;;;9.65;3.95;;;;;;;;;;4979472;28;20065;-64
2024/01/02 02:22:36;;;;;;;5.07;3.45;;;;;;;;;;4979075;28;20038;-63
2024/01/02 02:25:06;;;;;;;4.47;3.17;;;;;;;;;;4978565;28;20050;-63
2024/01/02 02:27:33;;;;;;;6.55;3.17;;;;;;;;;;4977524;28;20073;-63
2024/01/02 02:29:58;;;;;;;4.65;3.35;;;;;;;;;;4980528;28;20057;-65
2024/01/02 02:32:24;;;;;;;4.53;2.88;;;;;;;;;;4979144;28;20934;-63
2024/01/02 02:34:49;;;;;;;7.80;3.30;;;;;;;;;;4977606;28;20119;-64
2024/01/02 02:37:15;;;;;;;3.85;2.80;;;;;;;;;;4978252;28;20073;-62
2024/01/02 02:39:40;;;;;;;4.57;3.08;;;;;;;;;;4961687;28;20085;-63
2024/01/02 02:42:06;;;;;;;7.25;3.28;;;;;;;;;;4979711;28;20058;-65
2024/01/02 02:44:31;;;;;;;4.43;3.05;;;;;;;;;;4978613;28;20047;-65
2024/01/02 02:46:57;;;;;;;5.40;3.22;;;;;;;;;;4977555;28;20074;-66
2024/01/02 02:49:25;;;;;;;4.93;3.28;;;;;;;;;;4977508;28;20054;-68
2024/01/02 02:51:50;;;;;;;4.97;3.42;;;;;;;;;;4977802;28;20065;-66
2024/01/02 02:54:16;;;;;;;6.10;3.30;;;;;;;;;;4980247;28;20050;-66
2024/01/02 02:56:43;;;;;;;5.68;3.13;;;;;;;;;;4977233;28;20057;-65
2024/01/02 02:59:10;;;;;;;3.40;2.67;;;;;;;;;;4977839;28;20050;-68
2024/01/02 03:01:35;;;;;;;5.38;3.15;;;;;;;;;;4992574;28;20046;-64
2024/01/02 03:04:00;;;;;;;3.10;2.38;;;;;;;;;;4979666;28;20054;-65
2024/01/02 03:06:26;;;;;;;3.53;2.83;;;;;;;;;;4979551;28;20404;-67
2024/01/02 03:08:51;;;;;;;4.22;2.60;;;;;;;;;;4978270;28;20490;-65
2024/01/02 03:11:18;;;;;;;5.18;2.90;;;;;;;;;;4961462;28;20539;-64
2024/01/02 03:13:44;;;;;;;4.10;2.58;;;;;;;;;;4977332;28;20507;-67
2024/01/02 03:16:09;;;;;;;2.92;2.30;;;;;;;;;;4979807;28;20145;-64
2024/01/02 03:18:35;;;;;;;3.33;2.47;;;;;;;;;;4978012;28;20054;-66
2024/01/02 03:21:01;;;;;;;6.50;3.25;;;;;;;;;;4979381;28;20650;-66
2024/01/02 03:23:26;;;;;;;5.65;2.42;;;;;;;;;;4978334;28;20522;-63
2024/01/02 03:25:51;;;;;;;3.80;3.00;;;;;;;;;;4979016;28;20053;-65
2024/01/02 03:28:17;;;;;;;6.28;2.53;;;;;;;;;;4978790;28;20050;-63
2024/01/02 03:30:43;;;;;;;4.75;2.70;;;;;;;;;;4978092;28;20081;-64
2024/01/02 03:33:08;;;;;;;3.17;2.50;;;;;;;;;;4978529;28;20042;-65
2024/01/02 03:35:34;;;;;;;3.03;2.72;;;;;;;;;;4979588;28;20042;-65
2024/01/02 03:37:59;;;;;;;3.42;2.72;;;;;;;;;;4978724;28;20419;-65
2024/01/02 03:40:25;;;;;;;4.40;2.63;;;;;;;;;;4979309;28;20045;-65
2024/01/02 03:42:50;;;;;;;6.28;3.00;;;;;;;;;;4977651;28;20423;-65
2024/01/02 03:45:15;;;;;;;4.45;2.95;;;;;;;;;;4978295;28;20042;-64
2024/01/02 03:47:41;;;;;;;5.07;3.00;;;;;;;;;;4978433;28;20633;-67
2024/01/02 03:50:07;;;;;;;2.67;2.42;;;;;;;;;;4977693;28;20074;-65
2024/01/02 03:52:32;;;;;;;3.38;2.72;;;;;;;;;;4979253;28;20171;-64
2024/01/02 03:54:58;;;;;;;3.47;2.72;;;;;;;;;;4975885;28;20050;-65
2024/01/02 03:57:23;;;;;;;5.85;2.53;;;;;;;;;;4978553;28;20213;-65
2024/01/02 03:59:49;;;;;;;4.35;2.80;;;;;;;;;;4978274;28;20492;-65
2024/01/02 04:02:14;;;;;;;9.20;3.08;;;;;;;;;;4978975;28;20038;-66
2024/01/02 04:04:42;;;;;;;3.72;2.47;;;;;;;;;;4977321;28;20042;-65
2024/01/02 04:07:08;;;;;;;6.30;3.10;;;;;;;;;;4977554;28;20038;-63
2024/01/02 04:09:33;;;;;;;2.88;2.40;;;;;;;;;;4978487;28;20056;-66
2024/01/02 04:11:59;;;;;;;3.00;2.30;;;;;;;;;;4978013;28;20038;-66
2024/01/02 04:14:24;;;;;;;3.80;2.65;;;;;;;;;;4978283;28;20503;-68
2024/01/02 04:16:49;;;;;;;4.18;2.75;;;;;;;;;;4974701;28;20050;-65
2024/01/02 04:19:16;;;;;;;4.05;2.92;;;;;;;;;;4977898;28;20050;-68
2024/01/02 04:21:42;;;;;;;3.88;3.08;;;;;;;;;;4977262;28;20062;-68
2024/01/02 04:24:07;;;;;;;4.65;3.03;;;;;;;;;;4978391;28;20534;-66
2024/01/02 04:26:33;;;;;;;6.70;2.63;;;;;;;;;;4977373;28;20053;-67
2024/01/02 04:28:58;;;;;;;4.03;2.72;;;;;;;;;;4976397;28;20056;-67
2024/01/02 04:31:23;;;;;;;3.63;3.00;;;;;;;;;;4978031;28;20057;-66
2024/01/02 04:33:49;;;;;;;6.05;3.47;;;;;;;;;;4976360;28;20056;-66
2024/01/02 04:36:14;;;;;;;4.85;3.08;;;;;;;;;;4977963;28;20084;-68
2024/01/02 04:38:40;;;;;;;5.88;2.63;;;;;;;;;;4977012;28;20589;-65
2024/01/02 04:41:06;;;;;;;6.55;2.60;;;;;;;;;;4976433;28;20042;-66
2024/01/02 04:43:32;;;;;;;4.68;2.28;;;;;;;;;;4978266;28;20046;-65
2024/01/02 04:45:57;;;;;;;5.55;3.33;;;;;;;;;;4977156;28;20393;-66
2024/01/02 04:48:23;;;;;;;3.50;2.42;;;;;;;;;;4977878;28;20054;-68
2024/01/02 04:50:48;;;;;;;3.00;2.03;;;;;;;;;;4975489;28;20049;-66
2024/01/02 04:53:14;;;;;;;4.40;2.33;;;;;;;;;;4973321;28;20505;-66
2024/01/02 04:55:39;;;;;;;6.25;2.55;;;;;;;;;;4976920;28;20093;-66
2024/01/02 04:58:05;;;;;;;4.07;2.60;;;;;;;;;;4976977;28;20840;-67
2024/01/02 05:00:30;;;;;;;5.40;2.50;;;;;;;;;;4976911;28;20493;-69
2024/01/02 05:02:57;;;;;;;3.72;2.58;;;;;;;;;;4975965;28;20057;-68
2024/01/02 05:05:22;;;;;;;2.50;2.30;;;;;;;;;;4975622;28;20050;-66
2024/01/02 05:07:48;;;;;;;3.40;2.30;;;;;;;;;;4976514;28;20048;-68
2024/01/02 05:10:13;;;;;;;4.82;2.50;;;;;;;;;;4976092;28;20134;-65
2024/01/02 05:12:39;;;;;;;5.65;3.00;;;;;;;;;;4976297;28;20908;-66
2024/01/02 05:15:05;;;;;;;3.20;2.40;;;;;;;;;;4975585;28;20054;-65
2024/01/02 05:17:30;;;;;;;2.33;1.98;;;;;;;;;;4976449;28;20050;-66
2024/01/02 05:19:56;;;;;;;3.10;2.35;;;;;;;;;;4976885;28;20050;-65
2024/01/02 05:22:21;;;;;;;4.80;2.80;;;;;;;;;;4977034;28;20045;-66
2024/01/02 05:24:47;;;;;;;1.75;1.58;;;;;;;;;;4975793;28;20061;-64
2024/01/02 05:27:12;;;;;;;3.58;2.42;;;;;;;;;;4977697;28;20084;-65
2024/01/02 05:29:38;;;;;;;5.25;3.17;;;;;;;;;;4976925;28;20132;-65
2024/01/02 05:32:04;;;;;;;2.47;2.28;;;;;;;;;;4976422;28;20054;-65
2024/01/02 05:34:29;;;;;;;2.88;2.35;;;;;;;;;;4975059;28;20598;-69
2024/01/02 05:36:55;;;;;;;3.65;3.05;;;;;;;;;;4975337;28;20046;-65
2024/01/02 05:39:21;;;;;;;3.90;2.60;;;;;;;;;;4977267;28;20051;-64
2024/01/02 05:41:47;;;;;;;2.78;2.30;;;;;;;;;;4975849;28;20057;-65
2024/01/02 05:44:12;;;;;;;3.28;2.22;;;;;;;;;;4976693;28;20061;-67
2024/01/02 05:46:38;;;;;;;3.63;2.60;;;;;;;;;;4976573;28;20046;-65
2024/01/02 05:49:03;;;;;;;3.90;2.65;;;;;;;;;;4975858;28;20065;-63
2024/01/02 05:51:29;;;;;;;4.75;2.38;;;;;;;;;;4977141;28;20131;-61
2024/01/02 05:53:54;;;;;;;3.30;1.95;;;;;;;;;;4976208;28;20046;-66
2024/01/02 05:56:20;;;;;;;4.15;2.47;;;;;;;;;;4975901;28;20058;-62
2024/01/02 05:58:45;;;;;;;3.92;2.50;;;;;;;;;;4975457;28;20041;-67
2024/01/02 06:01:11;;;;;;;2.88;1.80;;;;;;;;;;4977297;28;20582;-66
2024/01/02 06:03:36;;;;;;;2.22;1.65;;;;;;;;;;4959590;28;20125;-67
2024/01/02 06:06:03;;;;;;;5.60;2.00;;;;;;;;;;4975064;28;20060;-65
2024/01/02 06:08:29;;;;;;;3.92;2.33;;;;;;;;;;4976091;28;20046;-64
2024/01/02 06:10:55;;;;;;;2.95;1.77;;;;;;;;;;4975622;28;20057;-67
2024/01/02 06:13:20;;;;;;;2.05;1.95;;;;;;;;;;4977184;28;20424;-66
2024/01/02 06:15:46;;;;;;;4.03;1.98;;;;;;;;;;4976330;28;20046;-67
2024/01/02 06:18:11;;;;;;;3.22;1.92;;;;;;;;;;4976375;28;20496;-64
2024/01/02 06:20:37;;;;;;;2.92;1.85;;;;;;;;;;4976981;28;20432;-67
2024/01/02 06:23:02;;;;;;;2.00;1.77;;;;;;;;;;4976139;28;20101;-65
2024/01/02 06:25:27;;;;;;;2.10;1.77;;;;;;;;;;4976669;28;20046;-66
2024/01/02 06:27:53;;;;;;;1.98;1.67;;;;;;;;;;4976226;28;20125;-64
2024/01/02 06:30:18;;;;;;;3.28;1.92;;;;;;;;;;4975591;28;20988;-65
2024/01/02 06:32:45;;;;;;;2.65;1.90;;;;;;;;;;4976174;28;20038;-66
2024/01/02 06:35:10;;;;;;;2.28;1.80;;;;;;;;;;4974188;28;20566;-68
2024/01/02 06:37:36;;;;;;;1.95;1.70;;;;;;;;;;4976418;28;20129;-68
2024/01/02 06:40:01;;;;;;;3.95;2.30;;;;;;;;;;4975180;28;20050;-68
2024/01/02 06:42:27;;;;;;;2.88;1.90;;;;;;;;;;4977088;28;20042;-67
2024/01/02 06:44:52;;;;;;;3.25;1.60;;;;;;;;;;4975240;28;20611;-68
2024/01/02 06:47:18;;;;;;;1.90;1.70;;;;;;;;;;4976445;28;20046;-67
2024/01/02 06:49:43;;;;;;;1.65;1.40;;;;;;;;;;4975658;28;20042;-67
2024/01/02 06:52:08;;;;;;;2.47;1.55;;;;;;;;;;4973889;28;20042;-69
2024/01/02 06:54:34;;;;;;;2.67;1.55;;;;;;;;;;4974934;28;20136;-67
2024/01/02 06:56:59;;;;;;;2.90;1.77;;;;;;;;;;4976691;28;20054;-66
2024/01/02 06:59:28;;;;;;;2.08;1.10;;;;;;;;;;4994151;28;20104;-69
2024/01/02 07:01:53;;;;;;;1.63;1.40;;;;;;;;;;4977322;28;20426;-66
2024/01/02 07:04:19;;;;;;;1.63;1.52;;;;;;;;;;4979726;28;20890;-66
2024/01/02 07:06:44;;;;;;;2.45;1.67;;;;;;;;;;4978905;28;20046;-67
2024/01/02 07:09:09;;;;;;;2.88;1.77;;;;;;;;;;4975767;28;20534;-67
2024/01/02 07:11:35;;;;;;;2.50;1.80;;;;;;;;;;4979362;28;20038;-70
2024/01/02 07:14:00;;;;;;;2.80;1.70;;;;;;;;;;4978055;28;20465;-65
2024/01/02 07:16:26;;;;;;;2.13;1.30;;;;;;;;;;4979459;28;20066;-69
2024/01/02 07:18:51;;;;;;;2.53;1.95;;;;;;;;;;4976409;28;20531;-66
2024/01/02 07:21:16;;;;;;;2.08;1.88;;;;;;;;;;4979089;28;20046;-66
2024/01/02 07:23:42;;;;;;;3.00;2.13;;;;;;;;;;4978489;28;20057;-66
2024/01/02 07:26:08;;;;;;;3.33;2.05;;;;;;;;;;4978380;28;20038;-66
2024/01/02 07:28:33;;;;;;;2.38;1.63;;;;;;;;;;4978916;28;20591;-67
2024/01/02 07:30:58;;;;;;;3.25;1.67;;;;;;;;;;4977860;28;20120;-66
2024/01/02 07:33:24;;;;;;;2.33;1.52;;;;;;;;;;4979412;28;20046;-67
2024/01/02 07:35:49;;;;;;;3.10;1.63;;;;;;;;;;4977867;28;20131;-66
2024/01/02 07:38:15;;;;;;;2.05;1.65;;;;;;;;;;4977249;28;20042;-67
2024/01/02 07:40:40;;;;;;;2.08;1.77;;;;;;;;;;4978483;28;20408;-66
2024/01/02 07:43:06;;;;;;;2.40;1.55;;;;;;;;;;4976883;28;20061;-66
2024/01/02 07:45:31;;;;;;;3.80;1.77;;;;;;;;;;4978202;28;20411;-66
2024/01/02 07:47:56;;;;;;;3.70;1.50;;;;;;;;;;4977906;28;20113;-66
2024/01/02 07:50:22;;;;;;;2.83;1.83;;;;;;;;;;4977439;28;20499;-66
2024/01/02 07:52:47;;;;;;;1.33;1.17;;;;;;;;;;4977659;28;20097;-66
2024/01/02 07:55:13;;;;;;;2.72;1.40;;;;;;;;;;4977418;28;20046;-66
2024/01/02 07:57:38;;;;;;;2.95;1.73;;;;;;;;;;4977815;28;20046;-66
2024/01/02 08:00:04;;;;;;;3.53;1.38;;;;;;;;;;4976413;28;20129;-67
2024/01/02 08:02:37;;;;;;;8.13;1.50;;;;;;;;;;4977653;28;20038;-66
2024/01/02 08:05:03;;;;;;;2.25;1.42;;;;;;;;;;4976481;28;20061;-66
2024/01/02 08:07:28;;;;;;;2.33;1.42;;;;;;;;;;4977102;28;20060;-66
2024/01/02 08:09:54;;;;;;;3.30;1.65;;;;;;;;;;4977533;28;20038;-66
2024/01/02 08:12:19;;;;;;;2.60;1.75;;;;;;;;;;4978330;28;20057;-66
2024/01/02 08:14:45;;;;;;;1.60;1.50;;;;;;;;;;4978109;28;20049;-66
2024/01/02 08:17:10;;;;;;;2.53;0.98;;;;;;;;;;4976782;28;20050;-66
2024/01/02 08:19:36;;;;;;;1.25;1.05;;;;;;;;;;4978255;28;20042;-66
2024/01/02 08:22:02;;;;;;;2.95;1.52;;;;;;;;;;4976356;28;20050;-66
2024/01/02 08:24:28;;;;;;;1.60;1.33;;;;;;;;;;4978524;28;20089;-67
2024/01/02 08:26:53;;;;;;;1.70;1.45;;;;;;;;;;4977591;28;20204;-67
2024/01/02 08:29:19;;;;;;;2.28;1.63;;;;;;;;;;4977723;28;20042;-66
2024/01/02 08:31:44;;;;;;;2.05;1.10;;;;;;;;;;4977829;28;20135;-67
2024/01/02 08:34:09;;;;;;;7.47;1.45;;;;;;;;;;4976656;28;20042;-69
2024/01/02 08:36:36;;;;;;;3.80;1.55;;;;;;;;;;4977240;28;20503;-67
2024/01/02 08:39:03;;;;;;;1.98;1.55;;;;;;;;;;4976023;28;20348;-66
2024/01/02 08:41:28;;;;;;;1.75;1.30;;;;;;;;;;4959124;28;20516;-68
2024/01/02 08:43:54;;;;;;;1.95;1.55;;;;;;;;;;4977183;28;20137;-66
2024/01/02 08:46:19;;;;;;;1.27;1.00;;;;;;;;;;4976659;28;20049;-67
2024/01/02 08:48:45;;;;;;;1.52;1.27;;;;;;;;;;4976621;28;20097;-67
2024/01/02 08:51:10;;;;;;;1.10;1.08;;;;;;;;;;4975919;28;21558;-68
2024/01/02 08:53:36;;;;;;;1.10;0.90;;;;;;;;;;4977175;28;20042;-68
2024/01/02 08:56:01;;;;;;;2.28;1.23;;;;;;;;;;4976423;28;20123;-67
2024/01/02 08:58:27;;;;;;;1.20;1.10;;;;;;;;;;4976755;28;20124;-68
2024/01/02 09:00:52;;;;;;;1.48;1.30;;;;;;;;;;4975403;28;20042;-68
2024/01/02 09:03:17;;;;;;;1.73;1.52;;;;;;;;;;4972258;28;20049;-68
2024/01/02 09:05:43;;;;;;;1.90;1.45;;;;;;;;;;4975425;28;20161;-65
2024/01/02 09:08:09;;;;;;;0.90;0.90;;;;;;;;;;4976435;28;20038;-68
2024/01/02 09:10:34;;;;;;;1.15;1.00;;;;;;;;;;4977253;28;20049;-69
2024/01/02 09:12:59;;;;;;;1.85;1.05;;;;;;;;;;4975782;28;20070;-70
2024/01/02 09:15:25;;;;;;;1.95;1.23;;;;;;;;;;4974656;28;20056;-66
2024/01/02 09:17:50;;;;;;;1.27;1.15;;;;;;;;;;4973596;28;20042;-67
2024/01/02 09:20:15;;;;;;;1.50;1.05;;;;;;;;;;4974228;28;20050;-66
2024/01/02 09:22:41;;;;;;;1.65;1.20;;;;;;;;;;4976523;28;20054;-67
2024/01/02 09:25:11;;;;;;;1.38;1.10;;;;;;;;;;4974727;28;20049;-69
2024/01/02 09:27:38;;;;;;;1.20;1.10;;;;;;;;;;4976439;28;20053;-68
2024/01/02 09:30:04;;;;;;;1.90;1.17;;;;;;;;;;4973426;28;20058;-66
2024/01/02 09:32:30;;;;;;;4.57;1.50;;;;;;;;;;4973952;28;20487;-67
2024/01/02 09:34:55;;;;;;;2.00;1.40;;;;;;;;;;4971908;28;20042;-65
2024/01/02 09:37:21;;;;;;;1.60;1.50;;;;;;;;;;4972005;28;20077;-66
2024/01/02 09:39:46;;;;;;;1.42;1.33;;;;;;;;;;4974754;28;20050;-67
2024/01/02 09:42:15;;;;;;;1.00;0.93;;;;;;;;;;4973667;28;20050;-64
2024/01/02 09:45:28;;;;;;;2.63;1.73;;;;;;;;;;4974136;28;20042;-67
2024/01/02 09:47:59;;;;;;;;;;;;;;;;;;4956489;28;20535;-67
2024/01/02 09:50:29;;;;;;;2.97;1.10;;;;;;;;;;4975299;28;19953;-66
2024/01/02 09:53:36;;;;;;;2.83;1.42;;;;;;;;;;4974682;28;20074;-67
2024/01/02 09:56:12;;;;;;;2.20;1.65;;;;;;;;;;4973870;28;20138;-66
2024/01/02 09:59:11;;;;;;;1.85;1.70;;;;;;;;;;4974486;28;20053;-67
2024/01/02 10:02:02;;;;;;;2.75;1.80;;;;;;;;;;4975361;28;21007;-68
2024/01/02 10:04:54;;;;;;;3.67;1.58;;;;;;;;;;4972848;28;20057;-68
2024/01/02 10:07:38;;;;;;;4.65;2.33;;;;;;;;;;4973404;28;20869;-68
2024/01/02 10:10:28;;;;;;;3.03;1.83;;;;;;;;;;4988275;28;20073;-65
2024/01/02 10:13:24;;;;;;;1.75;1.60;;;;;;;;;;4974094;28;20061;-66
2024/01/02 10:15:56;;;;;;;5.03;1.65;;;;;;;;;;4974306;28;20050;-66
2024/01/02 10:18:41;;;;;;;2.85;2.10;;;;;;;;;;4988009;28;20491;-69
2024/01/02 10:21:31;;;;;;;2.22;1.55;;;;;;;;;;4973047;28;20050;-67
2024/01/02 10:24:18;;;;;;;3.47;1.90;;;;;;;;;;4989253;28;20046;-68
2024/01/02 10:26:59;;;;;;;3.08;2.25;;;;;;;;;;4987305;28;20707;-67
2024/01/02 10:29:46;;;;;;;1.38;1.27;;;;;;;;;;4975547;28;20660;-66
2024/01/02 10:32:13;;;;;;;1.98;1.73;;;;;;;;;;4977481;28;20081;-69
2024/01/02 10:35:05;;;;;;;3.63;2.20;;;;;;;;;;4977931;28;20697;-73
2024/01/02 10:37:37;;;;;;;3.65;1.77;;;;;;;;;;4977702;28;20058;-67
2024/01/02 10:40:07;;;;;;;;;;;;;;;;;;4977918;28;20053;-68
2024/01/02 10:43:07;;;;;;;2.45;1.67;;;;;;;;;;4976808;28;20750;-67
2024/01/02 10:46:03;;;;;;;3.20;2.28;;;;;;;;;;4976898;28;20868;-67
2024/01/02 10:48:42;;;;;;;4.47;2.38;;;;;;;;;;4978025;28;20423;-68
2024/01/02 10:51:13;;;;;;;5.38;2.40;;;;;;;;;;4975878;28;20046;-68
2024/01/02 10:53:51;;;;;;;2.95;2.40;;;;;;;;;;4977220;28;20539;-67
2024/01/02 10:56:55;;;;;;;3.17;2.55;;;;;;;;;;4991644;28;20551;-67
2024/01/02 11:00:04;;;;;;;2.42;2.20;;;;;;;;;;4976712;28;20693;-67
2024/01/02 11:02:35;;;;;;;2.03;1.85;;;;;;;;;;4954640;28;20527;-67
2024/01/02 11:05:11;;;;;;;7.22;2.00;;;;;;;;;;4973191;28;20120;-67
2024/01/02 11:07:40;;;;;;;4.63;1.90;;;;;;;;;;4976534;28;20045;-67
2024/01/02 11:10:17;;;;;;;2.38;2.15;;;;;;;;;;4977539;28;20107;-67
2024/01/02 11:12:57;;;;;;;2.22;1.75;;;;;;;;;;4977314;28;20184;-67
2024/01/02 11:15:24;;;;;;;3.33;2.13;;;;;;;;;;4976510;28;20128;-68
2024/01/02 11:17:55;;;;;;;2.10;1.90;;;;;;;;;;4978058;28;20415;-68
2024/01/02 11:20:21;;;;;;;1.95;1.67;;;;;;;;;;4976509;28;20042;-68
2024/01/02 11:22:57;;;;;;;1.63;1.52;;;;;;;;;;4978077;28;20573;-68
2024/01/02 11:25:28;;;;;;;1.50;1.40;;;;;;;;;;4977662;28;20432;-68
2024/01/02 11:27:55;;;;;;;1.88;1.48;;;;;;;;;;4979276;28;20042;-68
2024/01/02 11:30:22;;;;;;;3.45;2.00;;;;;;;;;;4978910;28;20595;-68
2024/01/02 11:32:53;;;;;;;2.15;1.95;;;;;;;;;;4978507;28;20034;-68
2024/01/02 11:35:19;;;;;;;2.55;2.17;;;;;;;;;;4978066;28;20077;-68
2024/01/02 11:38:03;;;;;;;1.90;1.73;;;;;;;;;;4978216;28;20402;-69
2024/01/02 11:40:33;;;;;;;1.83;1.73;;;;;;;;;;4978090;28;20620;-68
2024/01/02 11:43:37;;;;;;;4.10;2.15;;;;;;;;;;4975841;28;20039;-69
2024/01/02 11:46:06;;;;;;;4.30;1.80;;;;;;;;;;4979171;28;20048;-68
2024/01/02 11:48:41;;;;;;;1.30;1.20;;;;;;;;;;4976370;28;20047;-67
2024/01/02 11:51:19;;;;;;;1.02;0.90;;;;;;;;;;4976256;28;20133;-66
2024/01/02 11:54:17;;;;;;;0.90;0.80;;;;;;;;;;4979236;28;20057;-68
2024/01/02 11:56:43;;;;;;;1.15;0.50;;;;;;;;;;4977860;28;20507;-69
2024/01/02 11:59:30;;;;;;;1.90;1.65;;;;;;;;;;4975790;28;20057;-70
2024/01/02 12:02:06;;;;;;;7.85;1.85;;;;;;;;;;4979170;28;20038;-69
2024/01/02 12:05:03;;;;;;;1.83;1.25;;;;;;;;;;4978367;28;20057;-67
2024/01/02 12:07:33;;;;;;;4.45;1.67;;;;;;;;;;4976908;28;20046;-69
2024/01/02 12:09:59;;;;;;;0.32;0.32;;;;;;;;;;4976048;28;20046;-67
2024/01/02 12:12:54;;;;;;;0.22;0.22;;;;;;;;;;4976605;28;20145;-69
2024/01/02 12:15:40;;;;;;;0.20;0.20;;;;;;;;;;4970246;28;20594;-68
2024/01/02 12:18:06;;;;;;;0.20;0.20;;;;;;;;;;4975277;28;20057;-68
2024/01/02 12:20:41;;;;;;;0.20;0.20;;;;;;;;;;4974446;28;20069;-68
2024/01/02 12:23:07;;;;;;;0.20;0.20;;;;;;;;;;4974022;28;20046;-68
2024/01/02 12:25:33;;;;;;;0.40;0.20;;;;;;;;;;4974441;28;20046;-67
2024/01/02 12:28:01;;;;;;;0.10;0.10;;;;;;;;;;4975378;28;20046;-67
2024/01/02 12:30:54;;;;;;;0.13;0.13;;;;;;;;;;4975332;28;20050;-68
2024/01/02 12:33:36;;;;;;;0.20;0.20;;;;;;;;;;4974741;28;20184;-69
2024/01/02 12:36:36;;;;;;;0.20;0.20;;;;;;;;;;4975156;28;20046;-71
2024/01/02 12:39:05;;;;;;;1.10;0.38;;;;;;;;;;4975914;28;20050;-68
2024/01/02 12:41:44;;;;;;;0.30;0.30;;;;;;;;;;4975740;28;20993;-69
2024/01/02 12:44:12;;;;;;;0.20;0.20;;;;;;;;;;4974066;28;20141;-69
2024/01/02 12:46:51;;;;;;;0.20;0.20;;;;;;;;;;4974706;28;20403;-67
2024/01/02 12:49:23;;;;;;;0.10;0.10;;;;;;;;;;4989567;28;20043;-68
2024/01/02 12:51:51;;;;;;;0.10;0.10;;;;;;;;;;4976726;28;20046;-69
2024/01/02 12:54:20;;;;;;;0.20;0.20;;;;;;;;;;4975023;28;20050;-69
2024/01/02 12:56:51;;;;;;;0.25;0.25;;;;;;;;;;4975298;28;20525;-69
2024/01/02 12:59:18;;;;;;;0.50;0.50;;;;;;;;;;4974516;28;20125;-68
2024/01/02 13:01:44;;;;;;;0.28;0.28;;;;;;;;;;4976163;28;20650;-69
2024/01/02 13:04:15;;;;;;;0.40;0.40;;;;;;;;;;4989430;28;20141;-66
2024/01/02 13:06:41;;;;;;;0.30;0.30;;;;;;;;;;4974764;28;21142;-67
2024/01/02 13:09:10;;;;;;;0.30;0.30;;;;;;;;;;4974387;28;20784;-69
2024/01/02 13:11:35;;;;;;;0.10;0.10;;;;;;;;;;4973709;28;20049;-69
2024/01/02 13:14:01;;;;;;;0.65;0.65;;;;;;;;;;4974464;28;20038;-70
2024/01/02 13:16:27;;;;;;;0.15;0.15;;;;;;;;;;4974022;28;20046;-70
2024/01/02 13:18:53;;;;;;;0.20;0.20;;;;;;;;;;4975746;28;20194;-68
2024/01/02 13:21:19;;;;;;;0.28;0.28;;;;;;;;;;4976398;28;20053;-68
2024/01/02 13:23:59;;;;;;;0.32;0.30;;;;;;;;;;4976858;28;20046;-68
2024/01/02 13:26:38;;;;;;;0.20;0.20;;;;;;;;;;4974978;28;20042;-68
2024/01/02 13:29:08;;;;;;;0.38;0.38;;;;;;;;;;4976007;28;20112;-69
2024/01/02 13:31:33;;;;;;;0.10;0.10;;;;;;;;;;4975911;28;20042;-67
2024/01/02 13:34:01;;;;;;;0.20;0.20;;;;;;;;;;4975416;28;20061;-66
2024/01/02 13:36:27;;;;;;;0.20;0.20;;;;;;;;;;4975520;28;20073;-68
2024/01/02 13:38:52;;;;;;;0.20;0.20;;;;;;;;;;4974821;28;20051;-68
2024/01/02 13:41:19;;;;;;;0.10;0.10;;;;;;;;;;4975453;28;20054;-69
2024/01/02 13:43:47;;;;;;;0.15;0.15;;;;;;;;;;4975657;28;20729;-66
2024/01/02 13:46:16;;;;;;;0.30;0.30;;;;;;;;;;4976947;28;20088;-68
2024/01/02 13:48:57;;;;;;;0.25;0.25;;;;;;;;;;4975138;28;20411;-68
2024/01/02 13:51:26;;;;;;;0.30;0.30;;;;;;;;;;4974541;28;20065;-66
2024/01/02 13:54:14;;;;;;;0.13;0.13;;;;;;;;;;4975518;28;20945;-68
2024/01/02 13:56:48;;;;;;;0.22;0.22;;;;;;;;;;4975273;28;20061;-68
2024/01/02 13:59:15;;;;;;;0.38;0.30;;;;;;;;;;4973522;28;20089;-69
2024/01/02 14:01:43;;;;;;;0.20;0.20;;;;;;;;;;4973669;28;20499;-68
2024/01/02 14:04:20;;;;;;;0.20;0.20;;;;;;;;;;4980725;28;20054;-68
2024/01/02 14:06:46;;;;;;;0.17;0.17;;;;;;;;;;4979676;28;20048;-68
2024/01/02 14:09:16;;;;;;;0.25;0.20;;;;;;;;;;4980117;28;20054;-68
2024/01/02 14:11:53;;;;;;;0.30;0.30;;;;;;;;;;4979852;28;20500;-68
2024/01/02 14:14:44;;;;;;;0.20;0.20;;;;;;;;;;4980076;28;20085;-69
2024/01/02 14:17:13;;;;;;;0.30;0.30;;;;;;;;;;4968329;28;20050;-66
2024/01/02 14:19:43;;;;;;;0.20;0.20;;;;;;;;;;4980086;28;20050;-68
2024/01/02 14:22:37;;;;;;;0.50;0.25;;;;;;;;;;4979886;28;20054;-68
2024/01/02 14:25:21;;;;;;;0.40;0.40;;;;;;;;;;4978515;28;20109;-68
2024/01/02 14:27:56;;;;;;;0.80;0.40;;;;;;;;;;4980124;28;20599;-66
2024/01/02 14:30:31;;;;;;;0.35;0.35;;;;;;;;;;4979537;28;20576;-68
2024/01/02 14:32:59;;;;;;;0.30;0.30;;;;;;;;;;4978698;28;20145;-67
2024/01/02 14:36:02;;;;;;;0.30;0.30;;;;;;;;;;4979633;28;20054;-66
2024/01/02 14:38:54;;;;;;;0.30;0.28;;;;;;;;;;4978509;28;20073;-66
2024/01/02 14:41:37;;;;;;;0.10;0.10;;;;;;;;;;4979088;28;20050;-68
2024/01/02 14:44:11;;;;;;;0.80;0.30;;;;;;;;;;4979860;28;20050;-70
2024/01/02 14:46:58;;;;;;;5.50;0.25;;;;;;;;;;4979484;28;20096;-69
2024/01/02 14:49:31;;;;;;;0.10;0.10;;;;;;;;;;4978532;28;20060;-67
2024/01/02 14:52:08;;;;;;;0.22;0.22;;;;;;;;;;4979475;28;20104;-67
2024/01/02 14:54:49;;;;;;;0.63;0.60;;;;;;;;;;4976792;28;20133;-67
2024/01/02 14:57:36;;;;;;;0.90;0.52;;;;;;;;;;4979633;28;20070;-67